This is the latest recevied weather packets stored in our database for station/object M0HPP-13. If no packets are shown the sender has not sent any weather packets the latest 10 day(s).
| Time | Temp. | Humidity | Pressure | Rain* | Wind** | Luminosity | Snow |
|---|---|---|---|---|---|---|---|
| 1777511419 | 6.67° C | 87% | 1027.1 hPa | 0 mm | - | 0 W/m² | - |
| 1777508419 | 6.67° C | 88% | 1027.1 hPa | 0 mm | - | 0 W/m² | - |
| 1777507819 | 7.22° C | 87% | 1027.2 hPa | 0 mm | - | 0 W/m² | - |
| 1777501219 | 9.44° C | 77% | 1027.3 hPa | 0 mm | - | 0 W/m² | - |
| 1777498219 | 10° C | 76% | 1027.4 hPa | 0 mm | - | 0 W/m² | - |
| 1777465219 | 12.78° C | 71% | 1029.5 hPa | 0 mm | - | 523 W/m² | - |
| 1777462219 | 13.33° C | 71% | 1029.6 hPa | 0 mm | - | 552 W/m² | - |
| 1777461619 | 13.33° C | 72% | 1029.7 hPa | 0 mm | - | 545 W/m² | - |
| 1777458019 | 13.33° C | 74% | 1029.9 hPa | 0 mm | - | 483 W/m² | - |
| 1777457419 | 12.78° C | 76% | 1029.9 hPa | 0 mm | - | 471 W/m² | - |
| 1777455619 | 12.22° C | 78% | 1029.9 hPa | 0 mm | - | 262 W/m² | - |
| 1777455019 | 12.22° C | 78% | 1029.9 hPa | 0 mm | - | 272 W/m² | - |
| 1777454419 | 11.67° C | 79% | 1030 hPa | 0 mm | - | 377 W/m² | - |
| 1777453819 | 11.67° C | 81% | 1030 hPa | 0 mm | - | 374 W/m² | - |
| 1777453219 | 11.67° C | 81% | 1029.9 hPa | 0 mm | - | 362 W/m² | - |
| 1777452019 | 12.22° C | 80% | 1029.9 hPa | 0 mm | - | 310 W/m² | - |
| 1777451419 | 11.11° C | 82% | 1030 hPa | 0 mm | - | 265 W/m² | - |
| 1777450819 | 11.11° C | 83% | 1030 hPa | 0 mm | - | 228 W/m² | - |
| 1777450219 | 11.11° C | 82% | 1030.1 hPa | 0 mm | - | 164 W/m² | - |
| 1777449619 | 10.56° C | 84% | 1030 hPa | 0 mm | - | 143 W/m² | - |
| 1777448419 | 10.56° C | 83% | 1030.1 hPa | 0 mm | - | 117 W/m² | - |
| 1777447819 | 10° C | 84% | 1030 hPa | 0 mm | - | 112 W/m² | - |
| 1777447219 | 10° C | 85% | 1030.2 hPa | 0 mm | - | 111 W/m² | - |
| 1777446619 | 9.44° C | 87% | 1030.1 hPa | 0 mm | - | 93 W/m² | - |
| 1777446019 | 9.44° C | 87% | 1030.1 hPa | 0 mm | - | 97 W/m² | - |
* Rain latest hour (hover to see other rain measurements)
** Current wind speed in m/s (hover to see current wind gust speed)